MMAS

Jesus Teran International Airport

Aguascalientes, Mexico
TAF MMAS 181707Z 1818/1918 00000KT P6SM SKC FM182000 05010KT P6SM SCT030 SCT200 BECMG 1821/1822 SCT030CB BKN200 TEMPO 1823/1903 5SM RA VC TS FM190300 00000KT P6SM SCT030 SCT200 FM191700 06010KT P6SM SCT200
Issued Valid From Valid To
Jul-18 @ 17:07 UTC
(5 hours ago)
Jul-18 @ 18:00 UTC
(5 hours ago)
Jul-19 @ 18:00 UTC
(in 19 hours)
Expired Click to View Jul-18 @ 18:00 to Jul-18 @ 20:00
TAF MMAS 181707Z 1818/1918 00000KT P6SM SKC
Visibility Clouds
Greater than 6 miles
  • Clear skies
Expired Click to View Jul-18 @ 20:00 to Jul-18 @ 21:00
FM182000 05010KT P6SM SCT030 SCT200
Wind Visibility Clouds
50° at 10 knots Greater than 6 miles
  • Scattered at 3,000' AGL
  • Scattered at 20,000' AGL
Becoming Jul-18 @ 21:00 to Jul-19 @ 03:00
BECMG 1821/1822 SCT030CB BKN200
Wind Visibility Clouds
50° at 10 knots Greater than 6 miles
  • Scattered at 3,000' AGL
  • Broken at 20,000' AGL
Temporary Jul-18 @ 23:00 to Jul-19 @ 03:00
TEMPO 1823/1903 5SM RA VC TS
Visibility Conditions
5 miles
  • Rain
  • Thunderstorm
From Jul-19 @ 03:00 to Jul-19 @ 17:00
FM190300 00000KT P6SM SCT030 SCT200
Visibility Clouds
Greater than 6 miles
  • Scattered at 3,000' AGL
  • Scattered at 20,000' AGL
From Jul-19 @ 17:00 to Jul-19 @ 18:00
FM191700 06010KT P6SM SCT200
Wind Visibility Clouds
60° at 10 knots Greater than 6 miles
  • Scattered at 20,000' AGL
TAF MMAS 181707Z 1818/1918 00000KT P6SM SKC FM182000 05010KT P6SM SCT030 SCT200 BECMG 1821/1822 SCT030CB BKN200 TEMPO 1823/1903 5SM RA VC TS FM190300 00000KT P6SM SCT030 SCT200 FM191700 06010KT P6SM SCT200
Issued Jul-18 @ 17:07 UTC
(5 hours ago)
Valid From Jul-18 @ 18:00 UTC
(5 hours ago)
Valid To Jul-19 @ 18:00 UTC
(in 19 hours)
Jul-18 @ 18:00 - Jul-18 @ 20:00
Clouds
  • Clear skies
Jul-18 @ 20:00 - Jul-18 @ 21:00
Wind Visibility
50° at 10 knots Greater than 6 miles
Clouds
  • Scattered at 3,000' AGL
  • Scattered at 20,000' AGL
Becoming Jul-18 @ 21:00 - Jul-19 @ 03:00
Wind Visibility
50° at 10 knots Greater than 6 miles
Clouds
  • Scattered at 3,000' AGL
  • Broken at 20,000' AGL
Temporary Jul-18 @ 23:00 - Jul-19 @ 03:00
Conditions
  • Rain
  • Thunderstorm
From Jul-19 @ 03:00 - Jul-19 @ 17:00
Clouds
  • Scattered at 3,000' AGL
  • Scattered at 20,000' AGL
From Jul-19 @ 17:00 - Jul-19 @ 18:00
Wind Visibility
60° at 10 knots Greater than 6 miles
Clouds
  • Scattered at 20,000' AGL